Antonios — SY8410 — position and weather

sailwx.info

Track history (hours):
 
Tides and Currents Weather Stations Pressure Air Temp Water Temp Dewpoint Dewpoint Depression Visibility Wind Speed Wind Dir Waves Ship Positions

Antonios

Last reported at 2015-Apr-16 17:13 UTC. Time now 2015-Apr-18 04:58 UTC.
Position N 36°58' E 026°45'.

Length 57 m; draft 4.1 m.

Type: Tanker. MMSI: 239191300.

Date/timePositionNaut miles runAvg speedWind from/ knotsBaromVisibWave heightAir tempDewpointWater temp
2015-Apr-16 17:13N 36°58' E 026°45'18 9.8
2015-Apr-16 15:23N 37°04' E 026°24'8 9.8
2015-Apr-16 14:31N 37°06' E 026°14'1010.1
2015-Apr-16 13:31N 37°08' E 026°01'10 9.9
2015-Apr-16 12:32N 37°10' E 025°49'10 9.8
2015-Apr-16 11:33N 37°13' E 025°38'10 9.7
2015-Apr-16 10:33N 37°15' E 025°26'10 9.8
2015-Apr-16 09:33N 37°17' E 025°14'1010.0
2015-Apr-16 08:30N 37°20' E 025°01'9 9.9
2015-Apr-16 07:33N 37°22' E 024°50'49 9.6
2015-Apr-16 02:24N 37°38' E 023°51'8 9.4
2015-Apr-16 01:33N 37°42' E 023°42'9 9.2
2015-Apr-16 00:33N 37°49' E 023°34'10 9.9
2015-Apr-15 23:33N 37°51' E 023°22'0 0.0
2015-Apr-15 14:33N 37°51' E 023°23'1110.6
2015-Apr-15 13:33N 37°51' E 023°36'9 9.5
2015-Apr-15 12:33N 37°43' E 023°43'5811.0
2015-Apr-15 07:15N 37°21' E 024°52'2 2.9
2015-Apr-15 06:32N 37°21' E 024°54'8 8.4
2015-Apr-15 05:33N 37°19' E 025°04'10 9.9
2015-Apr-15 04:32N 37°16' E 025°17'9 9.7
2015-Apr-15 03:33N 37°14' E 025°28'10 9.5
2015-Apr-15 02:32N 37°12' E 025°40'22 9.6
2015-Apr-15 00:16N 37°07' E 026°07'10 9.9
2015-Apr-14 23:13N 37°05' E 026°19'710.3
2015-Apr-14 22:32N 37°03' E 026°28'10 9.9
2015-Apr-14 21:33N 37°00' E 026°39'1010.3
2015-Apr-14 20:33N 36°57' E 026°52'  
Track history (hours):
 
Tides and Currents Weather Stations Pressure Air Temp Water Temp Dewpoint Dewpoint Depression Visibility Wind Speed Wind Dir Waves Ship Positions

Antonios

Last reported at 2015-Apr-16 17:13 UTC. Time now 2015-Apr-18 04:58 UTC.
Position N 36°58' E 026°45'.

Length 57 m; draft 4.1 m.

Type: Tanker. MMSI: 239191300.

Date/timePositionNaut miles runAvg speedWind from/ knotsBaromVisibWave heightAir tempDewpointWater temp
2015-Apr-16 17:13N 36°58' E 026°45'18 9.8
2015-Apr-16 15:23N 37°04' E 026°24'8 9.8
2015-Apr-16 14:31N 37°06' E 026°14'1010.1
2015-Apr-16 13:31N 37°08' E 026°01'10 9.9
2015-Apr-16 12:32N 37°10' E 025°49'10 9.8
2015-Apr-16 11:33N 37°13' E 025°38'10 9.7
2015-Apr-16 10:33N 37°15' E 025°26'10 9.8
2015-Apr-16 09:33N 37°17' E 025°14'1010.0
2015-Apr-16 08:30N 37°20' E 025°01'9 9.9
2015-Apr-16 07:33N 37°22' E 024°50'49 9.6
2015-Apr-16 02:24N 37°38' E 023°51'8 9.4
2015-Apr-16 01:33N 37°42' E 023°42'9 9.2
2015-Apr-16 00:33N 37°49' E 023°34'10 9.9
2015-Apr-15 23:33N 37°51' E 023°22'0 0.0
2015-Apr-15 14:33N 37°51' E 023°23'1110.6
2015-Apr-15 13:33N 37°51' E 023°36'9 9.5
2015-Apr-15 12:33N 37°43' E 023°43'5811.0
2015-Apr-15 07:15N 37°21' E 024°52'2 2.9
2015-Apr-15 06:32N 37°21' E 024°54'8 8.4
2015-Apr-15 05:33N 37°19' E 025°04'10 9.9
2015-Apr-15 04:32N 37°16' E 025°17'9 9.7
2015-Apr-15 03:33N 37°14' E 025°28'10 9.5
2015-Apr-15 02:32N 37°12' E 025°40'22 9.6
2015-Apr-15 00:16N 37°07' E 026°07'10 9.9
2015-Apr-14 23:13N 37°05' E 026°19'710.3
2015-Apr-14 22:32N 37°03' E 026°28'10 9.9
2015-Apr-14 21:33N 37°00' E 026°39'1010.3
2015-Apr-14 20:33N 36°57' E 026°52'  

Dump ship's entire track history